Meldrim, GA (31318)

6:48 AM EST on February 27, 2015 (GMT -0500)
Hwy80/119 Bulloch county Creekside Cabin | Change Station
CLOSE
Current Station
Personal Weather Station
Location: Ellabell, GA
Elevation: 79 ft
Nearby Weather Stations

Elev 79 ft 32.24 °N, 81.50 °W | Updated 3 minutes ago

Mostly Cloudy
Mostly Cloudy
35.6 °F
Feels Like 36 °F
N
0.0
Wind Variable Wind from ESE

Today
High -- | Low -- °F
--% Chance of Precip.
Yesterday
High -- | Low -- °F
Precip. -- in
6:55 AM 6:21 PM
Waxing Gibbous, 68% visible
Pressure 30.25 in
Visibility 10.0 miles
Clouds Scattered Clouds 3300 ft
Mostly Cloudy 25000 ft
Windchill 36 °F
Dew Point 35 °F
Humidity 99%
Rainfall 0.00 in
Snow Depth Not available.
UV 0 out of 12
Pollen 4.50 out of 12
Air Quality Not available.
Flu Activity Not available.
METAR KSAV 271053Z 03005KT 10SM SCT033 BKN250 04/02 A3024 RMK AO2 SLP241 FIRST AUGMENTED OBSERVATION T00390017

More Conditions Fewer Conditions

Pressure 30.25 in
Visibility 10.0 miles
Clouds Scattered Clouds 3300 ft
Mostly Cloudy 25000 ft
Windchill 36 °F
Dew Point 35 °F
Humidity 99%
Rainfall 0.00 in
Snow Depth Not available.
UV 0 out of 12
Pollen 4.50 out of 12
Air Quality Not available.
Flu Activity Not available.
METAR KSAV 271053Z 03005KT 10SM SCT033 BKN250 04/02 A3024 RMK AO2 SLP241 FIRST AUGMENTED OBSERVATION T00390017

More Conditions Fewer Conditions

10-Day Weather Forecast

Almanac

Astronomy

Feb. 27, 2015 Rise Set
Actual Time
Civil Twilight
Nautical Twilight
Astronomical Twilight
Moon
Length of Visible Light
Length of Day
Tomorrow will be .
, % of the Moon is Illuminated

Today's Extremes

State Highs State Lows

Community

WunderPhotos

Upload Photos

1,800,656 photos uploaded!

WunderBlogs® & News

Nearby

Air Quality

  Air Quality AQ Index Pollutant
Not available.

Snow Depth

Station Depth Elevation

Earthquake Activity

City Distance Mag. Time & Date
Minimum magnitude displayed is 2.5.

Coastal Water Temperatures

Place Temperature

Nearby Weather Stations